createdAt,value
2023-01-04T00:13:51.903Z,6.8
2023-01-04T00:29:01.385Z,4.8
2023-01-04T00:44:14.029Z,4.4
2023-01-04T00:59:23.582Z,4.9
2023-01-04T01:14:32.630Z,2.4
2023-01-04T01:29:42.228Z,3.9
2023-01-04T01:44:51.757Z,3.5
2023-01-04T02:00:01.199Z,4.5
2023-01-04T02:15:13.650Z,5.4
2023-01-04T02:30:23.437Z,5.5
2023-01-04T02:45:32.702Z,6.3
2023-01-04T03:00:42.531Z,6.7
2023-01-04T03:15:52.596Z,6.2
2023-01-04T03:31:02.145Z,4.6
2023-01-04T03:46:13.976Z,5.4
2023-01-04T04:01:24.208Z,9.4
2023-01-04T04:16:34.526Z,5.7
2023-01-04T04:31:44.518Z,2.7
2023-01-04T04:46:53.909Z,8.6
2023-01-04T05:02:05.256Z,4.6
2023-01-04T05:17:18.270Z,4.4
2023-01-04T05:32:28.534Z,3.4
2023-01-04T05:47:38.043Z,7.6
2023-01-04T06:02:48.099Z,3.4
2023-01-04T06:17:57.823Z,4.5
2023-01-04T06:33:07.537Z,6.2
2023-01-04T06:48:19.070Z,1.9
2023-01-04T07:03:29.212Z,2.3
2023-01-04T07:18:39.667Z,1.9
2023-01-04T07:33:49.963Z,4.9
2023-01-04T07:49:00.787Z,1.5
2023-01-04T08:04:14.237Z,1.4
2023-01-04T08:19:24.676Z,1.3
2023-01-04T08:34:34.497Z,1.6
2023-01-04T08:49:44.382Z,1.5
2023-01-04T09:04:54.184Z,3
2023-01-04T09:20:04.063Z,1.2
2023-01-04T09:35:14.125Z,1.4
2023-01-04T09:50:23.858Z,1.5
2023-01-04T10:05:33.455Z,1.4
2023-01-04T10:21:34.275Z,3
2023-01-04T10:36:46.468Z,1.3
2023-01-04T10:51:56.385Z,1
2023-01-04T11:07:06.265Z,2
2023-01-04T11:22:16.013Z,1.1
2023-01-04T11:37:25.707Z,1.1
2023-01-04T11:52:35.430Z,1.6
2023-01-04T12:07:45.077Z,2.7
2023-01-04T12:22:55.661Z,1.1
2023-01-04T12:38:05.442Z,0.9
2023-01-04T12:53:31.964Z,1.2
2023-01-04T13:08:42.752Z,1.2
2023-01-04T13:23:52.864Z,1.7
2023-01-04T13:39:03.199Z,1.6
2023-01-04T13:54:14.845Z,4.2
2023-01-04T14:09:24.519Z,2.1
2023-01-04T14:25:10.472Z,2.4
2023-01-04T14:40:24.325Z,3.9
2023-01-04T14:55:34.026Z,5.3
2023-01-04T15:10:43.825Z,5.5
2023-01-04T15:25:53.777Z,3.5
2023-01-04T15:41:04.514Z,2.9
2023-01-04T15:56:14.564Z,5.7
2023-01-04T16:11:24.309Z,4.4
2023-01-04T16:26:34.325Z,7.8
2023-01-04T16:41:43.943Z,8.8
2023-01-04T16:56:53.775Z,4.9
2023-01-04T17:12:49.567Z,6.9
2023-01-04T17:28:00.059Z,3.2
2023-01-04T17:43:23.167Z,5
2023-01-04T17:58:32.838Z,4.1
2023-01-04T18:28:51.569Z,6.2
2023-01-04T18:44:35.378Z,5.3
2023-01-04T18:59:49.869Z,6.4
2023-01-04T19:14:59.654Z,7.3
2023-01-04T19:30:09.457Z,8.9
2023-01-04T19:45:19.396Z,14.8
2023-01-04T20:00:29.014Z,11.1
2023-01-04T20:15:38.639Z,10.6
2023-01-04T20:30:48.464Z,10.6
2023-01-04T20:45:58.262Z,14.9
2023-01-04T21:01:08.402Z,17.2
2023-01-04T21:16:19.035Z,15.3
2023-01-04T21:31:28.859Z,10.4
2023-01-04T21:46:39.010Z,11.4
2023-01-04T22:01:49.225Z,12.4
2023-01-04T22:16:59.342Z,16.7
2023-01-04T22:32:08.906Z,11.4
2023-01-04T22:47:18.730Z,11.3
2023-01-04T23:02:28.872Z,8.6
2023-01-04T23:17:38.759Z,14.8
2023-01-04T23:32:48.522Z,9.7
2023-01-04T23:47:58.433Z,10.6
